sensor_id;sensor_type;location;lat;lon;timestamp;P1;durP1;ratioP1;P2;durP2;ratioP2
61015;SDS011;46902;52.920;6.536;2023-04-03T00:01:04;2.75;;;0.95;;
61015;SDS011;46902;52.920;6.536;2023-04-03T00:03:30;3.10;;;0.80;;
61015;SDS011;46902;52.920;6.536;2023-04-03T00:05:55;3.03;;;0.85;;
61015;SDS011;46902;52.920;6.536;2023-04-03T00:08:21;2.35;;;0.60;;
61015;SDS011;46902;52.920;6.536;2023-04-03T00:10:47;1.88;;;0.70;;
61015;SDS011;46902;52.920;6.536;2023-04-03T00:13:13;1.73;;;0.68;;
61015;SDS011;46902;52.920;6.536;2023-04-03T00:15:39;2.35;;;0.80;;
61015;SDS011;46902;52.920;6.536;2023-04-03T00:18:06;2.80;;;0.90;;
61015;SDS011;46902;52.920;6.536;2023-04-03T00:20:32;2.10;;;0.65;;
61015;SDS011;46902;52.920;6.536;2023-04-03T00:22:58;1.83;;;0.60;;
61015;SDS011;46902;52.920;6.536;2023-04-03T00:25:24;2.60;;;1.08;;
61015;SDS011;46902;52.920;6.536;2023-04-03T00:27:50;2.92;;;0.80;;
61015;SDS011;46902;52.920;6.536;2023-04-03T00:30:16;2.78;;;0.80;;
61015;SDS011;46902;52.920;6.536;2023-04-03T00:32:43;2.00;;;0.90;;
61015;SDS011;46902;52.920;6.536;2023-04-03T00:35:08;3.40;;;0.80;;
61015;SDS011;46902;52.920;6.536;2023-04-03T00:37:35;3.90;;;1.05;;
61015;SDS011;46902;52.920;6.536;2023-04-03T00:40:01;3.03;;;0.68;;
61015;SDS011;46902;52.920;6.536;2023-04-03T00:42:28;1.80;;;0.70;;
61015;SDS011;46902;52.920;6.536;2023-04-03T00:47:22;1.83;;;0.65;;
61015;SDS011;46902;52.920;6.536;2023-04-03T00:49:49;2.90;;;0.70;;
61015;SDS011;46902;52.920;6.536;2023-04-03T00:52:16;3.15;;;1.10;;
61015;SDS011;46902;52.920;6.536;2023-04-03T00:54:46;3.47;;;1.23;;
61015;SDS011;46902;52.920;6.536;2023-04-03T00:57:13;1.95;;;0.90;;
61015;SDS011;46902;52.920;6.536;2023-04-03T00:59:44;2.25;;;0.80;;
61015;SDS011;46902;52.920;6.536;2023-04-03T01:02:14;2.65;;;0.90;;
61015;SDS011;46902;52.920;6.536;2023-04-03T01:04:41;4.60;;;0.75;;
61015;SDS011;46902;52.920;6.536;2023-04-03T01:09:46;2.15;;;0.60;;
61015;SDS011;46902;52.920;6.536;2023-04-03T01:12:17;4.03;;;0.82;;
61015;SDS011;46902;52.920;6.536;2023-04-03T01:14:46;1.88;;;0.75;;
61015;SDS011;46902;52.920;6.536;2023-04-03T01:17:47;3.35;;;0.88;;
61015;SDS011;46902;52.920;6.536;2023-04-03T01:22:56;1.92;;;0.90;;
61015;SDS011;46902;52.920;6.536;2023-04-03T01:25:25;2.63;;;1.13;;
61015;SDS011;46902;52.920;6.536;2023-04-03T01:27:51;3.25;;;0.95;;
61015;SDS011;46902;52.920;6.536;2023-04-03T01:30:18;3.22;;;0.85;;
61015;SDS011;46902;52.920;6.536;2023-04-03T01:32:45;3.08;;;0.73;;
61015;SDS011;46902;52.920;6.536;2023-04-03T01:35:11;3.22;;;0.90;;
61015;SDS011;46902;52.920;6.536;2023-04-03T01:37:37;2.35;;;0.77;;
61015;SDS011;46902;52.920;6.536;2023-04-03T01:40:03;2.22;;;0.98;;
61015;SDS011;46902;52.920;6.536;2023-04-03T01:42:29;3.03;;;1.08;;
61015;SDS011;46902;52.920;6.536;2023-04-03T01:44:55;2.50;;;0.88;;
61015;SDS011;46902;52.920;6.536;2023-04-03T01:47:21;3.28;;;0.95;;
61015;SDS011;46902;52.920;6.536;2023-04-03T01:49:46;3.42;;;1.05;;
61015;SDS011;46902;52.920;6.536;2023-04-03T01:52:12;3.38;;;1.00;;
61015;SDS011;46902;52.920;6.536;2023-04-03T01:54:38;3.22;;;0.95;;
61015;SDS011;46902;52.920;6.536;2023-04-03T01:57:03;3.15;;;1.08;;
61015;SDS011;46902;52.920;6.536;2023-04-03T01:59:29;3.70;;;1.00;;
61015;SDS011;46902;52.920;6.536;2023-04-03T02:01:55;3.80;;;0.90;;
61015;SDS011;46902;52.920;6.536;2023-04-03T02:04:21;3.22;;;0.90;;
61015;SDS011;46902;52.920;6.536;2023-04-03T02:06:47;4.90;;;0.85;;
61015;SDS011;46902;52.920;6.536;2023-04-03T02:09:12;3.40;;;1.30;;
61015;SDS011;46902;52.920;6.536;2023-04-03T02:11:38;5.13;;;0.98;;
61015;SDS011;46902;52.920;6.536;2023-04-03T02:14:04;4.28;;;1.20;;
61015;SDS011;46902;52.920;6.536;2023-04-03T02:16:30;3.15;;;0.88;;
61015;SDS011;46902;52.920;6.536;2023-04-03T02:18:56;4.10;;;0.90;;
61015;SDS011;46902;52.920;6.536;2023-04-03T02:21:22;3.35;;;1.10;;
61015;SDS011;46902;52.920;6.536;2023-04-03T02:23:48;3.13;;;0.90;;
61015;SDS011;46902;52.920;6.536;2023-04-03T02:26:14;3.25;;;0.98;;
61015;SDS011;46902;52.920;6.536;2023-04-03T02:28:41;4.32;;;0.95;;
61015;SDS011;46902;52.920;6.536;2023-04-03T02:31:07;3.22;;;1.02;;
61015;SDS011;46902;52.920;6.536;2023-04-03T02:33:33;4.60;;;1.17;;
61015;SDS011;46902;52.920;6.536;2023-04-03T02:36:02;3.95;;;1.10;;
61015;SDS011;46902;52.920;6.536;2023-04-03T02:38:29;4.50;;;0.90;;
61015;SDS011;46902;52.920;6.536;2023-04-03T02:41:02;3.60;;;0.90;;
61015;SDS011;46902;52.920;6.536;2023-04-03T02:43:28;4.32;;;1.30;;
61015;SDS011;46902;52.920;6.536;2023-04-03T02:45:54;2.50;;;0.93;;
61015;SDS011;46902;52.920;6.536;2023-04-03T02:48:20;4.88;;;1.27;;
61015;SDS011;46902;52.920;6.536;2023-04-03T02:50:46;5.57;;;1.40;;
61015;SDS011;46902;52.920;6.536;2023-04-03T02:53:11;3.55;;;1.20;;
61015;SDS011;46902;52.920;6.536;2023-04-03T02:55:37;2.47;;;1.00;;
61015;SDS011;46902;52.920;6.536;2023-04-03T02:58:03;3.85;;;1.20;;
61015;SDS011;46902;52.920;6.536;2023-04-03T03:00:28;5.68;;;1.40;;
61015;SDS011;46902;52.920;6.536;2023-04-03T03:02:54;5.50;;;1.10;;
61015;SDS011;46902;52.920;6.536;2023-04-03T03:05:20;5.28;;;1.20;;
61015;SDS011;46902;52.920;6.536;2023-04-03T03:07:46;5.03;;;1.20;;
61015;SDS011;46902;52.920;6.536;2023-04-03T03:10:12;2.67;;;1.00;;
61015;SDS011;46902;52.920;6.536;2023-04-03T03:12:38;2.90;;;1.10;;
61015;SDS011;46902;52.920;6.536;2023-04-03T03:15:04;2.30;;;1.10;;
61015;SDS011;46902;52.920;6.536;2023-04-03T03:17:30;4.18;;;1.20;;
61015;SDS011;46902;52.920;6.536;2023-04-03T03:19:55;3.85;;;1.40;;
61015;SDS011;46902;52.920;6.536;2023-04-03T03:22:21;4.22;;;1.00;;
61015;SDS011;46902;52.920;6.536;2023-04-03T03:24:46;5.25;;;1.15;;
61015;SDS011;46902;52.920;6.536;2023-04-03T03:27:12;3.72;;;1.33;;
61015;SDS011;46902;52.920;6.536;2023-04-03T03:29:38;2.70;;;0.95;;
61015;SDS011;46902;52.920;6.536;2023-04-03T03:32:03;4.82;;;1.10;;
61015;SDS011;46902;52.920;6.536;2023-04-03T03:34:29;4.43;;;1.27;;
61015;SDS011;46902;52.920;6.536;2023-04-03T03:36:55;5.38;;;1.55;;
61015;SDS011;46902;52.920;6.536;2023-04-03T03:39:21;5.03;;;1.15;;
61015;SDS011;46902;52.920;6.536;2023-04-03T03:41:46;3.40;;;1.20;;
61015;SDS011;46902;52.920;6.536;2023-04-03T03:44:12;4.03;;;1.20;;
61015;SDS011;46902;52.920;6.536;2023-04-03T03:46:38;5.68;;;1.27;;
61015;SDS011;46902;52.920;6.536;2023-04-03T03:49:03;4.68;;;1.40;;
61015;SDS011;46902;52.920;6.536;2023-04-03T03:51:29;3.50;;;1.20;;
61015;SDS011;46902;52.920;6.536;2023-04-03T03:53:55;4.85;;;1.40;;
61015;SDS011;46902;52.920;6.536;2023-04-03T03:56:20;4.85;;;1.52;;
61015;SDS011;46902;52.920;6.536;2023-04-03T03:58:46;4.57;;;1.42;;
61015;SDS011;46902;52.920;6.536;2023-04-03T04:01:11;5.88;;;1.50;;
61015;SDS011;46902;52.920;6.536;2023-04-03T04:03:37;5.22;;;1.50;;
61015;SDS011;46902;52.920;6.536;2023-04-03T04:06:03;5.65;;;1.58;;
61015;SDS011;46902;52.920;6.536;2023-04-03T04:08:29;3.05;;;1.20;;
61015;SDS011;46902;52.920;6.536;2023-04-03T04:10:55;3.97;;;1.88;;
61015;SDS011;46902;52.920;6.536;2023-04-03T04:13:20;3.60;;;1.42;;
61015;SDS011;46902;52.920;6.536;2023-04-03T04:15:46;4.00;;;1.83;;
61015;SDS011;46902;52.920;6.536;2023-04-03T04:18:12;7.40;;;1.67;;
61015;SDS011;46902;52.920;6.536;2023-04-03T04:20:37;5.88;;;1.58;;
61015;SDS011;46902;52.920;6.536;2023-04-03T04:23:03;7.15;;;1.75;;
61015;SDS011;46902;52.920;6.536;2023-04-03T04:25:28;4.70;;;1.60;;
61015;SDS011;46902;52.920;6.536;2023-04-03T04:27:54;7.72;;;2.10;;
61015;SDS011;46902;52.920;6.536;2023-04-03T04:30:20;3.63;;;1.90;;
61015;SDS011;46902;52.920;6.536;2023-04-03T04:32:45;6.72;;;2.08;;
61015;SDS011;46902;52.920;6.536;2023-04-03T04:35:11;4.13;;;1.67;;
61015;SDS011;46902;52.920;6.536;2023-04-03T04:37:37;8.35;;;1.92;;
61015;SDS011;46902;52.920;6.536;2023-04-03T04:40:03;8.85;;;2.00;;
61015;SDS011;46902;52.920;6.536;2023-04-03T04:42:28;7.90;;;2.67;;
61015;SDS011;46902;52.920;6.536;2023-04-03T04:44:54;7.88;;;1.70;;
61015;SDS011;46902;52.920;6.536;2023-04-03T04:47:20;5.47;;;1.85;;
61015;SDS011;46902;52.920;6.536;2023-04-03T04:49:45;5.78;;;2.00;;
61015;SDS011;46902;52.920;6.536;2023-04-03T04:52:12;8.20;;;1.95;;
61015;SDS011;46902;52.920;6.536;2023-04-03T04:54:38;4.82;;;1.75;;
61015;SDS011;46902;52.920;6.536;2023-04-03T04:57:04;5.18;;;1.80;;
61015;SDS011;46902;52.920;6.536;2023-04-03T04:59:29;4.78;;;1.70;;
61015;SDS011;46902;52.920;6.536;2023-04-03T05:01:55;6.38;;;2.00;;
61015;SDS011;46902;52.920;6.536;2023-04-03T05:04:21;5.68;;;1.90;;
61015;SDS011;46902;52.920;6.536;2023-04-03T05:06:46;6.13;;;1.88;;
61015;SDS011;46902;52.920;6.536;2023-04-03T05:09:12;6.18;;;1.73;;
61015;SDS011;46902;52.920;6.536;2023-04-03T05:11:38;5.82;;;1.83;;
61015;SDS011;46902;52.920;6.536;2023-04-03T05:14:03;5.15;;;2.10;;
61015;SDS011;46902;52.920;6.536;2023-04-03T05:16:31;8.15;;;2.13;;
61015;SDS011;46902;52.920;6.536;2023-04-03T05:18:57;5.97;;;1.92;;
61015;SDS011;46902;52.920;6.536;2023-04-03T05:21:23;5.97;;;2.33;;
61015;SDS011;46902;52.920;6.536;2023-04-03T05:23:51;6.50;;;2.00;;
61015;SDS011;46902;52.920;6.536;2023-04-03T05:26:16;5.00;;;2.22;;
61015;SDS011;46902;52.920;6.536;2023-04-03T05:28:42;7.03;;;2.17;;
61015;SDS011;46902;52.920;6.536;2023-04-03T05:31:08;6.10;;;1.92;;
61015;SDS011;46902;52.920;6.536;2023-04-03T05:33:34;7.78;;;1.98;;
61015;SDS011;46902;52.920;6.536;2023-04-03T05:36:06;4.55;;;2.10;;
61015;SDS011;46902;52.920;6.536;2023-04-03T05:38:32;9.38;;;2.15;;
61015;SDS011;46902;52.920;6.536;2023-04-03T05:40:58;4.80;;;1.65;;
61015;SDS011;46902;52.920;6.536;2023-04-03T05:43:23;4.97;;;1.85;;
61015;SDS011;46902;52.920;6.536;2023-04-03T05:45:50;6.45;;;2.58;;
61015;SDS011;46902;52.920;6.536;2023-04-03T05:48:16;4.53;;;2.10;;
61015;SDS011;46902;52.920;6.536;2023-04-03T05:50:41;7.80;;;2.10;;
61015;SDS011;46902;52.920;6.536;2023-04-03T05:53:07;6.28;;;2.13;;
61015;SDS011;46902;52.920;6.536;2023-04-03T05:58:06;9.20;;;2.15;;
61015;SDS011;46902;52.920;6.536;2023-04-03T06:00:31;6.78;;;2.15;;
61015;SDS011;46902;52.920;6.536;2023-04-03T06:02:57;6.65;;;2.17;;
61015;SDS011;46902;52.920;6.536;2023-04-03T06:05:23;5.70;;;2.00;;
61015;SDS011;46902;52.920;6.536;2023-04-03T06:07:48;6.15;;;2.10;;
61015;SDS011;46902;52.920;6.536;2023-04-03T06:10:14;8.07;;;2.42;;
61015;SDS011;46902;52.920;6.536;2023-04-03T06:12:40;7.95;;;2.25;;
61015;SDS011;46902;52.920;6.536;2023-04-03T06:15:06;5.95;;;2.00;;
61015;SDS011;46902;52.920;6.536;2023-04-03T06:17:34;6.13;;;2.10;;
61015;SDS011;46902;52.920;6.536;2023-04-03T06:20:01;9.48;;;2.22;;
61015;SDS011;46902;52.920;6.536;2023-04-03T06:22:27;9.95;;;2.67;;
61015;SDS011;46902;52.920;6.536;2023-04-03T06:24:54;8.57;;;2.95;;
61015;SDS011;46902;52.920;6.536;2023-04-03T06:27:20;8.38;;;1.83;;
61015;SDS011;46902;52.920;6.536;2023-04-03T06:29:46;7.43;;;2.13;;
61015;SDS011;46902;52.920;6.536;2023-04-03T06:32:13;8.45;;;2.13;;
61015;SDS011;46902;52.920;6.536;2023-04-03T06:34:40;6.72;;;1.95;;
61015;SDS011;46902;52.920;6.536;2023-04-03T06:37:06;6.18;;;1.75;;
61015;SDS011;46902;52.920;6.536;2023-04-03T06:39:35;9.18;;;2.60;;
61015;SDS011;46902;52.920;6.536;2023-04-03T06:42:01;7.65;;;1.80;;
61015;SDS011;46902;52.920;6.536;2023-04-03T06:44:27;11.88;;;2.22;;
61015;SDS011;46902;52.920;6.536;2023-04-03T06:46:52;5.68;;;1.88;;
61015;SDS011;46902;52.920;6.536;2023-04-03T06:49:19;6.90;;;2.10;;
61015;SDS011;46902;52.920;6.536;2023-04-03T06:51:44;9.30;;;2.33;;
61015;SDS011;46902;52.920;6.536;2023-04-03T06:54:10;4.63;;;1.90;;
61015;SDS011;46902;52.920;6.536;2023-04-03T06:56:36;5.50;;;1.98;;
61015;SDS011;46902;52.920;6.536;2023-04-03T06:59:02;6.45;;;1.90;;
61015;SDS011;46902;52.920;6.536;2023-04-03T07:01:28;5.35;;;1.70;;
61015;SDS011;46902;52.920;6.536;2023-04-03T07:03:55;8.15;;;1.63;;
61015;SDS011;46902;52.920;6.536;2023-04-03T07:06:21;4.95;;;1.40;;
61015;SDS011;46902;52.920;6.536;2023-04-03T07:08:47;6.18;;;1.80;;
61015;SDS011;46902;52.920;6.536;2023-04-03T07:11:16;5.05;;;1.90;;
61015;SDS011;46902;52.920;6.536;2023-04-03T07:13:41;5.90;;;1.40;;
61015;SDS011;46902;52.920;6.536;2023-04-03T07:16:07;5.47;;;1.63;;
61015;SDS011;46902;52.920;6.536;2023-04-03T07:18:33;4.75;;;1.48;;
61015;SDS011;46902;52.920;6.536;2023-04-03T07:21:00;5.40;;;1.42;;
61015;SDS011;46902;52.920;6.536;2023-04-03T07:23:25;7.57;;;2.05;;
61015;SDS011;46902;52.920;6.536;2023-04-03T07:25:51;5.70;;;1.70;;
61015;SDS011;46902;52.920;6.536;2023-04-03T07:28:18;4.95;;;1.45;;
61015;SDS011;46902;52.920;6.536;2023-04-03T07:30:46;5.22;;;1.98;;
61015;SDS011;46902;52.920;6.536;2023-04-03T07:33:14;5.90;;;1.83;;
61015;SDS011;46902;52.920;6.536;2023-04-03T07:35:41;8.90;;;1.60;;
61015;SDS011;46902;52.920;6.536;2023-04-03T07:38:07;6.05;;;1.80;;
61015;SDS011;46902;52.920;6.536;2023-04-03T07:40:33;5.32;;;1.52;;
61015;SDS011;46902;52.920;6.536;2023-04-03T07:42:59;4.82;;;1.55;;
61015;SDS011;46902;52.920;6.536;2023-04-03T07:45:26;4.80;;;1.70;;
61015;SDS011;46902;52.920;6.536;2023-04-03T07:47:52;4.45;;;1.60;;
61015;SDS011;46902;52.920;6.536;2023-04-03T07:50:17;3.53;;;1.42;;
61015;SDS011;46902;52.920;6.536;2023-04-03T07:52:44;4.65;;;1.08;;
61015;SDS011;46902;52.920;6.536;2023-04-03T07:55:10;6.20;;;1.35;;
61015;SDS011;46902;52.920;6.536;2023-04-03T07:57:36;4.30;;;1.58;;
61015;SDS011;46902;52.920;6.536;2023-04-03T08:00:05;4.72;;;1.13;;
61015;SDS011;46902;52.920;6.536;2023-04-03T08:02:31;4.72;;;1.73;;
61015;SDS011;46902;52.920;6.536;2023-04-03T08:04:57;4.72;;;1.42;;
61015;SDS011;46902;52.920;6.536;2023-04-03T08:07:23;6.68;;;1.10;;
61015;SDS011;46902;52.920;6.536;2023-04-03T08:09:50;7.45;;;1.70;;
61015;SDS011;46902;52.920;6.536;2023-04-03T08:12:16;4.40;;;1.55;;
61015;SDS011;46902;52.920;6.536;2023-04-03T08:14:41;3.53;;;1.30;;
61015;SDS011;46902;52.920;6.536;2023-04-03T08:17:07;6.82;;;1.30;;
61015;SDS011;46902;52.920;6.536;2023-04-03T08:19:37;5.57;;;1.20;;
61015;SDS011;46902;52.920;6.536;2023-04-03T08:22:03;4.10;;;1.30;;
61015;SDS011;46902;52.920;6.536;2023-04-03T08:24:30;3.45;;;1.10;;
61015;SDS011;46902;52.920;6.536;2023-04-03T08:26:56;2.92;;;1.08;;
61015;SDS011;46902;52.920;6.536;2023-04-03T08:29:22;6.43;;;1.02;;
61015;SDS011;46902;52.920;6.536;2023-04-03T08:31:48;3.40;;;1.30;;
61015;SDS011;46902;52.920;6.536;2023-04-03T08:34:15;3.60;;;1.23;;
61015;SDS011;46902;52.920;6.536;2023-04-03T08:36:41;2.92;;;0.82;;
61015;SDS011;46902;52.920;6.536;2023-04-03T08:39:07;4.70;;;1.30;;
61015;SDS011;46902;52.920;6.536;2023-04-03T08:41:36;4.00;;;1.20;;
61015;SDS011;46902;52.920;6.536;2023-04-03T08:44:11;5.60;;;1.05;;
61015;SDS011;46902;52.920;6.536;2023-04-03T08:49:31;4.80;;;1.17;;
61015;SDS011;46902;52.920;6.536;2023-04-03T08:52:01;4.78;;;0.80;;
61015;SDS011;46902;52.920;6.536;2023-04-03T08:54:33;4.03;;;1.02;;
61015;SDS011;46902;52.920;6.536;2023-04-03T08:57:00;3.70;;;0.85;;
61015;SDS011;46902;52.920;6.536;2023-04-03T08:59:31;3.83;;;1.00;;
61015;SDS011;46902;52.920;6.536;2023-04-03T09:02:00;2.28;;;0.82;;
61015;SDS011;46902;52.920;6.536;2023-04-03T09:04:35;2.65;;;0.90;;
61015;SDS011;46902;52.920;6.536;2023-04-03T09:07:03;2.97;;;0.68;;
61015;SDS011;46902;52.920;6.536;2023-04-03T09:09:41;2.50;;;0.65;;
61015;SDS011;46902;52.920;6.536;2023-04-03T09:12:18;4.07;;;0.70;;
61015;SDS011;46902;52.920;6.536;2023-04-03T09:22:46;2.03;;;0.47;;
61015;SDS011;46902;52.920;6.536;2023-04-03T09:25:15;3.10;;;1.00;;
61015;SDS011;46902;52.920;6.536;2023-04-03T09:27:43;2.28;;;0.60;;
61015;SDS011;46902;52.920;6.536;2023-04-03T09:30:13;2.83;;;0.70;;
61015;SDS011;46902;52.920;6.536;2023-04-03T09:32:41;1.70;;;0.60;;
61015;SDS011;46902;52.920;6.536;2023-04-03T09:35:30;2.80;;;0.70;;
61015;SDS011;46902;52.920;6.536;2023-04-03T09:40:38;1.30;;;0.50;;
61015;SDS011;46902;52.920;6.536;2023-04-03T09:43:29;3.00;;;0.70;;
61015;SDS011;46902;52.920;6.536;2023-04-03T09:45:56;2.95;;;1.02;;
61015;SDS011;46902;52.920;6.536;2023-04-03T09:48:49;2.00;;;0.55;;
61015;SDS011;46902;52.920;6.536;2023-04-03T09:51:16;2.38;;;0.70;;
61015;SDS011;46902;52.920;6.536;2023-04-03T09:53:42;2.28;;;0.75;;
61015;SDS011;46902;52.920;6.536;2023-04-03T09:58:42;2.90;;;0.77;;
61015;SDS011;46902;52.920;6.536;2023-04-03T10:04:15;2.33;;;0.68;;
61015;SDS011;46902;52.920;6.536;2023-04-03T10:06:53;3.40;;;0.60;;
61015;SDS011;46902;52.920;6.536;2023-04-03T10:09:26;2.53;;;0.85;;
61015;SDS011;46902;52.920;6.536;2023-04-03T10:12:02;2.17;;;0.65;;
61015;SDS011;46902;52.920;6.536;2023-04-03T10:14:36;2.65;;;0.52;;
61015;SDS011;46902;52.920;6.536;2023-04-03T10:17:18;1.35;;;0.52;;
61015;SDS011;46902;52.920;6.536;2023-04-03T10:28:10;1.90;;;0.70;;
61015;SDS011;46902;52.920;6.536;2023-04-03T10:30:56;3.65;;;0.77;;
61015;SDS011;46902;52.920;6.536;2023-04-03T10:33:51;1.90;;;0.68;;
61015;SDS011;46902;52.920;6.536;2023-04-03T10:39:53;1.98;;;0.60;;
61015;SDS011;46902;52.920;6.536;2023-04-03T10:48:11;2.75;;;0.68;;
61015;SDS011;46902;52.920;6.536;2023-04-03T10:56:37;3.70;;;0.82;;
61015;SDS011;46902;52.920;6.536;2023-04-03T10:59:26;2.53;;;0.80;;
61015;SDS011;46902;52.920;6.536;2023-04-03T11:01:59;2.75;;;0.77;;
61015;SDS011;46902;52.920;6.536;2023-04-03T11:04:30;2.22;;;0.63;;
61015;SDS011;46902;52.920;6.536;2023-04-03T11:07:04;3.42;;;0.73;;
61015;SDS011;46902;52.920;6.536;2023-04-03T11:09:39;2.63;;;0.90;;
61015;SDS011;46902;52.920;6.536;2023-04-03T11:12:23;1.73;;;0.70;;
61015;SDS011;46902;52.920;6.536;2023-04-03T11:14:53;1.92;;;0.70;;
61015;SDS011;46902;52.920;6.536;2023-04-03T11:17:23;2.38;;;0.73;;
61015;SDS011;46902;52.920;6.536;2023-04-03T11:22:27;2.35;;;0.70;;
61015;SDS011;46902;52.920;6.536;2023-04-03T11:25:22;2.88;;;0.68;;
61015;SDS011;46902;52.920;6.536;2023-04-03T11:27:57;3.60;;;0.80;;
61015;SDS011;46902;52.920;6.536;2023-04-03T11:30:25;2.13;;;0.60;;
61015;SDS011;46902;52.920;6.536;2023-04-03T11:35:42;7.93;;;1.48;;
61015;SDS011;46902;52.920;6.536;2023-04-03T11:38:21;2.58;;;0.70;;
61015;SDS011;46902;52.920;6.536;2023-04-03T11:40:54;2.28;;;0.60;;
61015;SDS011;46902;52.920;6.536;2023-04-03T11:43:24;2.83;;;0.70;;
61015;SDS011;46902;52.920;6.536;2023-04-03T11:45:52;3.60;;;0.68;;
61015;SDS011;46902;52.920;6.536;2023-04-03T11:50:53;2.97;;;0.90;;
61015;SDS011;46902;52.920;6.536;2023-04-03T11:55:56;3.50;;;0.98;;
61015;SDS011;46902;52.920;6.536;2023-04-03T11:58:32;2.13;;;0.70;;
61015;SDS011;46902;52.920;6.536;2023-04-03T12:01:09;3.25;;;0.47;;
61015;SDS011;46902;52.920;6.536;2023-04-03T12:16:32;2.70;;;0.95;;
61015;SDS011;46902;52.920;6.536;2023-04-03T12:34:47;3.15;;;0.70;;
61015;SDS011;46902;52.920;6.536;2023-04-03T12:40:16;2.50;;;0.95;;
61015;SDS011;46902;52.920;6.536;2023-04-03T12:45:37;1.70;;;0.63;;
61015;SDS011;46902;52.920;6.536;2023-04-03T12:48:27;3.38;;;0.95;;
61015;SDS011;46902;52.920;6.536;2023-04-03T12:50:56;2.67;;;1.05;;
61015;SDS011;46902;52.920;6.536;2023-04-03T12:53:27;2.65;;;0.90;;
61015;SDS011;46902;52.920;6.536;2023-04-03T12:56:18;2.28;;;0.75;;
61015;SDS011;46902;52.920;6.536;2023-04-03T12:58:52;3.88;;;1.00;;
61015;SDS011;46902;52.920;6.536;2023-04-03T13:01:26;4.13;;;0.82;;
61015;SDS011;46902;52.920;6.536;2023-04-03T13:03:53;3.33;;;0.90;;
61015;SDS011;46902;52.920;6.536;2023-04-03T13:06:27;2.72;;;0.88;;
61015;SDS011;46902;52.920;6.536;2023-04-03T13:09:00;5.05;;;1.05;;
61015;SDS011;46902;52.920;6.536;2023-04-03T13:11:36;2.67;;;0.80;;
61015;SDS011;46902;52.920;6.536;2023-04-03T13:14:14;3.25;;;1.02;;
61015;SDS011;46902;52.920;6.536;2023-04-03T13:16:42;4.13;;;0.90;;
61015;SDS011;46902;52.920;6.536;2023-04-03T13:19:17;3.95;;;1.20;;
61015;SDS011;46902;52.920;6.536;2023-04-03T13:21:43;2.40;;;0.80;;
61015;SDS011;46902;52.920;6.536;2023-04-03T13:24:10;2.40;;;0.80;;
61015;SDS011;46902;52.920;6.536;2023-04-03T13:26:37;3.13;;;0.88;;
61015;SDS011;46902;52.920;6.536;2023-04-03T13:29:07;2.70;;;1.00;;
61015;SDS011;46902;52.920;6.536;2023-04-03T13:31:44;2.47;;;0.80;;
61015;SDS011;46902;52.920;6.536;2023-04-03T13:34:13;3.95;;;1.00;;
61015;SDS011;46902;52.920;6.536;2023-04-03T13:36:55;2.42;;;1.10;;
61015;SDS011;46902;52.920;6.536;2023-04-03T13:39:24;3.40;;;0.90;;
61015;SDS011;46902;52.920;6.536;2023-04-03T13:41:53;3.10;;;0.82;;
61015;SDS011;46902;52.920;6.536;2023-04-03T13:47:16;2.40;;;0.90;;
61015;SDS011;46902;52.920;6.536;2023-04-03T13:49:46;4.05;;;1.27;;
61015;SDS011;46902;52.920;6.536;2023-04-03T13:52:31;4.45;;;1.30;;
61015;SDS011;46902;52.920;6.536;2023-04-03T13:55:25;4.53;;;1.08;;
61015;SDS011;46902;52.920;6.536;2023-04-03T13:58:00;5.38;;;1.30;;
61015;SDS011;46902;52.920;6.536;2023-04-03T14:00:45;4.15;;;0.95;;
61015;SDS011;46902;52.920;6.536;2023-04-03T14:03:30;3.13;;;1.10;;
61015;SDS011;46902;52.920;6.536;2023-04-03T14:05:58;7.22;;;0.85;;
61015;SDS011;46902;52.920;6.536;2023-04-03T14:08:26;3.70;;;1.08;;
61015;SDS011;46902;52.920;6.536;2023-04-03T14:10:52;3.50;;;1.10;;
61015;SDS011;46902;52.920;6.536;2023-04-03T14:13:18;3.83;;;1.20;;
61015;SDS011;46902;52.920;6.536;2023-04-03T14:15:45;2.65;;;1.13;;
61015;SDS011;46902;52.920;6.536;2023-04-03T14:18:13;3.70;;;1.38;;
61015;SDS011;46902;52.920;6.536;2023-04-03T14:20:41;3.55;;;1.20;;
61015;SDS011;46902;52.920;6.536;2023-04-03T14:23:08;2.50;;;0.90;;
61015;SDS011;46902;52.920;6.536;2023-04-03T14:25:34;3.20;;;0.98;;
61015;SDS011;46902;52.920;6.536;2023-04-03T14:28:00;2.90;;;1.02;;
61015;SDS011;46902;52.920;6.536;2023-04-03T14:30:27;3.17;;;1.23;;
61015;SDS011;46902;52.920;6.536;2023-04-03T14:32:56;5.82;;;1.10;;
61015;SDS011;46902;52.920;6.536;2023-04-03T14:35:22;2.40;;;1.08;;
61015;SDS011;46902;52.920;6.536;2023-04-03T14:37:48;3.20;;;0.93;;
61015;SDS011;46902;52.920;6.536;2023-04-03T14:40:17;2.28;;;1.10;;
61015;SDS011;46902;52.920;6.536;2023-04-03T14:42:46;5.40;;;1.33;;
61015;SDS011;46902;52.920;6.536;2023-04-03T14:45:13;5.55;;;1.33;;
61015;SDS011;46902;52.920;6.536;2023-04-03T14:47:42;2.95;;;0.90;;
61015;SDS011;46902;52.920;6.536;2023-04-03T14:50:17;5.70;;;1.40;;
61015;SDS011;46902;52.920;6.536;2023-04-03T14:52:46;2.78;;;0.93;;
61015;SDS011;46902;52.920;6.536;2023-04-03T14:55:14;4.75;;;1.38;;
61015;SDS011;46902;52.920;6.536;2023-04-03T14:57:41;3.33;;;1.13;;
61015;SDS011;46902;52.920;6.536;2023-04-03T15:00:18;4.45;;;0.98;;
61015;SDS011;46902;52.920;6.536;2023-04-03T15:02:45;2.70;;;1.10;;
61015;SDS011;46902;52.920;6.536;2023-04-03T15:05:12;2.55;;;0.80;;
61015;SDS011;46902;52.920;6.536;2023-04-03T15:07:41;4.75;;;1.10;;
61015;SDS011;46902;52.920;6.536;2023-04-03T15:10:20;2.13;;;0.90;;
61015;SDS011;46902;52.920;6.536;2023-04-03T15:12:48;2.20;;;1.00;;
61015;SDS011;46902;52.920;6.536;2023-04-03T15:15:14;3.90;;;1.00;;
61015;SDS011;46902;52.920;6.536;2023-04-03T15:17:41;5.28;;;1.13;;
61015;SDS011;46902;52.920;6.536;2023-04-03T15:20:11;2.92;;;1.08;;
61015;SDS011;46902;52.920;6.536;2023-04-03T15:22:42;3.30;;;0.70;;
61015;SDS011;46902;52.920;6.536;2023-04-03T15:25:08;2.53;;;0.85;;
61015;SDS011;46902;52.920;6.536;2023-04-03T15:27:34;3.25;;;0.98;;
61015;SDS011;46902;52.920;6.536;2023-04-03T15:30:00;3.45;;;0.90;;
61015;SDS011;46902;52.920;6.536;2023-04-03T15:32:26;2.40;;;0.85;;
61015;SDS011;46902;52.920;6.536;2023-04-03T15:34:51;2.63;;;0.85;;
61015;SDS011;46902;52.920;6.536;2023-04-03T15:37:19;2.10;;;0.80;;
61015;SDS011;46902;52.920;6.536;2023-04-03T15:39:44;3.10;;;0.88;;
61015;SDS011;46902;52.920;6.536;2023-04-03T15:42:10;3.35;;;0.85;;
61015;SDS011;46902;52.920;6.536;2023-04-03T15:44:37;2.95;;;0.70;;
61015;SDS011;46902;52.920;6.536;2023-04-03T15:47:03;2.22;;;0.80;;
61015;SDS011;46902;52.920;6.536;2023-04-03T15:49:29;4.82;;;0.93;;
61015;SDS011;46902;52.920;6.536;2023-04-03T15:51:57;3.22;;;0.80;;
61015;SDS011;46902;52.920;6.536;2023-04-03T15:54:22;2.05;;;0.80;;
61015;SDS011;46902;52.920;6.536;2023-04-03T15:56:50;2.45;;;0.63;;
61015;SDS011;46902;52.920;6.536;2023-04-03T15:59:16;3.30;;;0.90;;
61015;SDS011;46902;52.920;6.536;2023-04-03T16:01:42;3.63;;;0.88;;
61015;SDS011;46902;52.920;6.536;2023-04-03T16:04:08;3.38;;;1.00;;
61015;SDS011;46902;52.920;6.536;2023-04-03T16:06:35;3.65;;;0.82;;
61015;SDS011;46902;52.920;6.536;2023-04-03T16:09:01;1.80;;;0.70;;
61015;SDS011;46902;52.920;6.536;2023-04-03T16:11:27;2.75;;;0.80;;
61015;SDS011;46902;52.920;6.536;2023-04-03T16:13:53;3.03;;;0.80;;
61015;SDS011;46902;52.920;6.536;2023-04-03T16:16:19;3.13;;;0.77;;
61015;SDS011;46902;52.920;6.536;2023-04-03T16:18:45;4.38;;;0.70;;
61015;SDS011;46902;52.920;6.536;2023-04-03T16:21:11;2.20;;;0.80;;
61015;SDS011;46902;52.920;6.536;2023-04-03T16:23:39;2.13;;;0.57;;
61015;SDS011;46902;52.920;6.536;2023-04-03T16:26:06;2.40;;;0.70;;
61015;SDS011;46902;52.920;6.536;2023-04-03T16:28:31;2.50;;;0.85;;
61015;SDS011;46902;52.920;6.536;2023-04-03T16:30:57;2.47;;;0.98;;
61015;SDS011;46902;52.920;6.536;2023-04-03T16:33:24;2.15;;;0.70;;
61015;SDS011;46902;52.920;6.536;2023-04-03T16:35:50;2.67;;;0.93;;